Terminal Aerodrome Forecast
Issued by NWS Paducah, KY

Home | Current Version | Previous Version | Text Only | Print | Product List | Glossary Off
Versions: 1 2 3 4 5 6 7 8 9 10 11 12 13 14 15 16 17 18 19 20 21 22 23

000
FTUS43 KPAH 010500
TAFEVV
TAF
KEVV 010520Z 0106/0206 19005KT P6SM SCT035
     FM011430 21013G20KT P6SM SCT030
     FM012300 21012KT P6SM BKN150=

USA.gov is the U.S. government's official web portal to all federal, state and local government web resources and services.